sensor_id;sensor_type;location;lat;lon;timestamp;P1;durP1;ratioP1;P2;durP2;ratioP2
1715;SDS011;855;48.824;9.220;2024-02-26T00:01:50;4.47;;;2.20;;
1715;SDS011;855;48.824;9.220;2024-02-26T00:04:18;2.63;;;1.73;;
1715;SDS011;855;48.824;9.220;2024-02-26T00:06:46;4.17;;;1.70;;
1715;SDS011;855;48.824;9.220;2024-02-26T00:09:15;2.40;;;1.93;;
1715;SDS011;855;48.824;9.220;2024-02-26T00:11:42;3.00;;;2.10;;
1715;SDS011;855;48.824;9.220;2024-02-26T00:14:09;4.73;;;1.90;;
1715;SDS011;855;48.824;9.220;2024-02-26T00:16:36;4.30;;;2.50;;
1715;SDS011;855;48.824;9.220;2024-02-26T00:19:05;8.27;;;2.30;;
1715;SDS011;855;48.824;9.220;2024-02-26T00:21:33;3.75;;;2.00;;
1715;SDS011;855;48.824;9.220;2024-02-26T00:24:00;3.53;;;2.40;;
1715;SDS011;855;48.824;9.220;2024-02-26T00:26:27;2.83;;;1.87;;
1715;SDS011;855;48.824;9.220;2024-02-26T00:28:54;1.80;;;1.50;;
1715;SDS011;855;48.824;9.220;2024-02-26T00:31:21;4.40;;;1.73;;
1715;SDS011;855;48.824;9.220;2024-02-26T00:33:48;2.80;;;1.67;;
1715;SDS011;855;48.824;9.220;2024-02-26T00:36:15;2.60;;;1.60;;
1715;SDS011;855;48.824;9.220;2024-02-26T00:38:43;2.33;;;1.50;;
1715;SDS011;855;48.824;9.220;2024-02-26T00:41:11;5.83;;;2.00;;
1715;SDS011;855;48.824;9.220;2024-02-26T00:43:38;2.77;;;1.67;;
1715;SDS011;855;48.824;9.220;2024-02-26T00:46:05;5.67;;;1.80;;
1715;SDS011;855;48.824;9.220;2024-02-26T00:48:32;1.53;;;1.53;;
1715;SDS011;855;48.824;9.220;2024-02-26T00:50:58;3.90;;;1.67;;
1715;SDS011;855;48.824;9.220;2024-02-26T00:53:25;2.87;;;1.63;;
1715;SDS011;855;48.824;9.220;2024-02-26T00:55:55;3.33;;;1.87;;
1715;SDS011;855;48.824;9.220;2024-02-26T00:58:21;2.03;;;1.47;;
1715;SDS011;855;48.824;9.220;2024-02-26T01:00:48;5.90;;;2.10;;
1715;SDS011;855;48.824;9.220;2024-02-26T01:03:15;4.17;;;1.70;;
1715;SDS011;855;48.824;9.220;2024-02-26T01:05:43;3.40;;;1.53;;
1715;SDS011;855;48.824;9.220;2024-02-26T01:08:09;3.67;;;1.90;;
1715;SDS011;855;48.824;9.220;2024-02-26T01:10:36;3.70;;;1.70;;
1715;SDS011;855;48.824;9.220;2024-02-26T01:13:05;2.73;;;1.73;;
1715;SDS011;855;48.824;9.220;2024-02-26T01:15:32;2.13;;;1.70;;
1715;SDS011;855;48.824;9.220;2024-02-26T01:17:59;4.30;;;1.70;;
1715;SDS011;855;48.824;9.220;2024-02-26T01:20:26;3.80;;;1.70;;
1715;SDS011;855;48.824;9.220;2024-02-26T01:22:53;3.20;;;1.60;;
1715;SDS011;855;48.824;9.220;2024-02-26T01:25:19;7.63;;;1.60;;
1715;SDS011;855;48.824;9.220;2024-02-26T01:27:46;7.97;;;2.17;;
1715;SDS011;855;48.824;9.220;2024-02-26T01:30:15;2.80;;;1.53;;
1715;SDS011;855;48.824;9.220;2024-02-26T01:32:42;4.67;;;1.70;;
1715;SDS011;855;48.824;9.220;2024-02-26T01:35:09;2.20;;;1.13;;
1715;SDS011;855;48.824;9.220;2024-02-26T01:37:37;3.17;;;1.70;;
1715;SDS011;855;48.824;9.220;2024-02-26T01:40:04;3.70;;;1.97;;
1715;SDS011;855;48.824;9.220;2024-02-26T01:42:32;2.20;;;1.93;;
1715;SDS011;855;48.824;9.220;2024-02-26T01:44:59;1.50;;;1.40;;
1715;SDS011;855;48.824;9.220;2024-02-26T01:47:27;4.77;;;1.77;;
1715;SDS011;855;48.824;9.220;2024-02-26T01:49:55;1.80;;;1.53;;
1715;SDS011;855;48.824;9.220;2024-02-26T01:52:22;3.33;;;1.60;;
1715;SDS011;855;48.824;9.220;2024-02-26T01:54:49;8.37;;;2.10;;
1715;SDS011;855;48.824;9.220;2024-02-26T01:57:16;1.80;;;1.70;;
1715;SDS011;855;48.824;9.220;2024-02-26T01:59:43;4.00;;;2.07;;
1715;SDS011;855;48.824;9.220;2024-02-26T02:02:10;4.30;;;1.40;;
1715;SDS011;855;48.824;9.220;2024-02-26T02:04:40;4.37;;;2.20;;
1715;SDS011;855;48.824;9.220;2024-02-26T02:07:06;2.50;;;1.83;;
1715;SDS011;855;48.824;9.220;2024-02-26T02:09:33;3.10;;;1.40;;
1715;SDS011;855;48.824;9.220;2024-02-26T02:12:01;2.03;;;1.57;;
1715;SDS011;855;48.824;9.220;2024-02-26T02:14:28;4.47;;;1.87;;
1715;SDS011;855;48.824;9.220;2024-02-26T02:16:55;3.63;;;1.70;;
1715;SDS011;855;48.824;9.220;2024-02-26T02:19:22;3.30;;;1.73;;
1715;SDS011;855;48.824;9.220;2024-02-26T02:21:50;3.23;;;2.00;;
1715;SDS011;855;48.824;9.220;2024-02-26T02:24:17;2.47;;;1.80;;
1715;SDS011;855;48.824;9.220;2024-02-26T02:26:44;5.30;;;1.70;;
1715;SDS011;855;48.824;9.220;2024-02-26T02:29:11;2.43;;;2.03;;
1715;SDS011;855;48.824;9.220;2024-02-26T02:31:38;5.30;;;2.07;;
1715;SDS011;855;48.824;9.220;2024-02-26T02:34:05;3.20;;;1.87;;
1715;SDS011;855;48.824;9.220;2024-02-26T02:36:32;3.60;;;2.00;;
1715;SDS011;855;48.824;9.220;2024-02-26T02:39:01;4.50;;;1.80;;
1715;SDS011;855;48.824;9.220;2024-02-26T02:41:28;6.10;;;1.70;;
1715;SDS011;855;48.824;9.220;2024-02-26T02:43:55;2.87;;;1.60;;
1715;SDS011;855;48.824;9.220;2024-02-26T02:46:22;3.37;;;2.07;;
1715;SDS011;855;48.824;9.220;2024-02-26T02:48:49;2.97;;;1.30;;
1715;SDS011;855;48.824;9.220;2024-02-26T02:51:16;3.90;;;1.63;;
1715;SDS011;855;48.824;9.220;2024-02-26T02:53:43;2.80;;;2.00;;
1715;SDS011;855;48.824;9.220;2024-02-26T02:56:11;1.60;;;1.40;;
1715;SDS011;855;48.824;9.220;2024-02-26T02:58:38;1.67;;;1.47;;
1715;SDS011;855;48.824;9.220;2024-02-26T03:01:05;3.13;;;1.67;;
1715;SDS011;855;48.824;9.220;2024-02-26T03:03:31;5.40;;;1.43;;
1715;SDS011;855;48.824;9.220;2024-02-26T03:05:58;3.47;;;1.57;;
1715;SDS011;855;48.824;9.220;2024-02-26T03:08:25;3.40;;;2.00;;
1715;SDS011;855;48.824;9.220;2024-02-26T03:10:52;2.77;;;1.60;;
1715;SDS011;855;48.824;9.220;2024-02-26T03:13:20;3.67;;;2.17;;
1715;SDS011;855;48.824;9.220;2024-02-26T03:15:47;1.67;;;1.37;;
1715;SDS011;855;48.824;9.220;2024-02-26T03:18:14;2.70;;;2.20;;
1715;SDS011;855;48.824;9.220;2024-02-26T03:20:41;4.60;;;2.57;;
1715;SDS011;855;48.824;9.220;2024-02-26T03:23:08;3.47;;;1.53;;
1715;SDS011;855;48.824;9.220;2024-02-26T03:25:37;1.33;;;1.30;;
1715;SDS011;855;48.824;9.220;2024-02-26T03:28:05;2.40;;;2.20;;
1715;SDS011;855;48.824;9.220;2024-02-26T03:30:33;1.60;;;1.43;;
1715;SDS011;855;48.824;9.220;2024-02-26T03:33:00;2.77;;;1.67;;
1715;SDS011;855;48.824;9.220;2024-02-26T03:35:27;3.57;;;1.57;;
1715;SDS011;855;48.824;9.220;2024-02-26T03:37:54;2.83;;;1.70;;
1715;SDS011;855;48.824;9.220;2024-02-26T03:40:21;1.60;;;1.60;;
1715;SDS011;855;48.824;9.220;2024-02-26T03:42:48;3.27;;;1.63;;
1715;SDS011;855;48.824;9.220;2024-02-26T03:45:15;3.80;;;1.70;;
1715;SDS011;855;48.824;9.220;2024-02-26T03:47:43;2.37;;;1.57;;
1715;SDS011;855;48.824;9.220;2024-02-26T03:50:10;1.87;;;1.60;;
1715;SDS011;855;48.824;9.220;2024-02-26T03:52:36;1.77;;;1.57;;
1715;SDS011;855;48.824;9.220;2024-02-26T03:55:04;7.13;;;2.10;;
1715;SDS011;855;48.824;9.220;2024-02-26T03:57:31;3.33;;;1.60;;
1715;SDS011;855;48.824;9.220;2024-02-26T03:59:58;1.63;;;1.50;;
1715;SDS011;855;48.824;9.220;2024-02-26T04:02:24;5.50;;;1.23;;
1715;SDS011;855;48.824;9.220;2024-02-26T04:04:53;2.80;;;1.50;;
1715;SDS011;855;48.824;9.220;2024-02-26T04:07:20;2.73;;;1.50;;
1715;SDS011;855;48.824;9.220;2024-02-26T04:09:47;1.13;;;1.10;;
1715;SDS011;855;48.824;9.220;2024-02-26T04:12:13;2.37;;;1.50;;
1715;SDS011;855;48.824;9.220;2024-02-26T04:14:40;1.93;;;1.73;;
1715;SDS011;855;48.824;9.220;2024-02-26T04:17:07;2.33;;;2.13;;
1715;SDS011;855;48.824;9.220;2024-02-26T04:19:34;1.63;;;1.13;;
1715;SDS011;855;48.824;9.220;2024-02-26T04:22:02;5.90;;;1.60;;
1715;SDS011;855;48.824;9.220;2024-02-26T04:24:29;3.80;;;1.90;;
1715;SDS011;855;48.824;9.220;2024-02-26T04:26:56;6.50;;;2.50;;
1715;SDS011;855;48.824;9.220;2024-02-26T04:29:23;1.90;;;1.50;;
1715;SDS011;855;48.824;9.220;2024-02-26T04:31:49;5.10;;;1.83;;
1715;SDS011;855;48.824;9.220;2024-02-26T04:34:16;2.90;;;1.60;;
1715;SDS011;855;48.824;9.220;2024-02-26T04:36:43;6.43;;;1.70;;
1715;SDS011;855;48.824;9.220;2024-02-26T04:39:11;3.97;;;1.90;;
1715;SDS011;855;48.824;9.220;2024-02-26T04:41:38;2.27;;;2.00;;
1715;SDS011;855;48.824;9.220;2024-02-26T04:44:05;3.70;;;1.80;;
1715;SDS011;855;48.824;9.220;2024-02-26T04:46:32;4.43;;;1.57;;
1715;SDS011;855;48.824;9.220;2024-02-26T04:48:59;1.53;;;1.37;;
1715;SDS011;855;48.824;9.220;2024-02-26T04:51:26;1.97;;;1.77;;
1715;SDS011;855;48.824;9.220;2024-02-26T04:53:53;2.30;;;1.43;;
1715;SDS011;855;48.824;9.220;2024-02-26T04:56:21;2.10;;;1.53;;
1715;SDS011;855;48.824;9.220;2024-02-26T04:58:48;1.60;;;1.40;;
1715;SDS011;855;48.824;9.220;2024-02-26T05:01:15;3.40;;;1.90;;
1715;SDS011;855;48.824;9.220;2024-02-26T05:03:42;2.60;;;1.70;;
1715;SDS011;855;48.824;9.220;2024-02-26T05:06:09;3.23;;;1.67;;
1715;SDS011;855;48.824;9.220;2024-02-26T05:08:36;1.93;;;1.40;;
1715;SDS011;855;48.824;9.220;2024-02-26T05:11:03;2.40;;;1.53;;
1715;SDS011;855;48.824;9.220;2024-02-26T05:13:32;2.57;;;1.60;;
1715;SDS011;855;48.824;9.220;2024-02-26T05:15:59;4.50;;;1.63;;
1715;SDS011;855;48.824;9.220;2024-02-26T05:18:27;3.17;;;1.90;;
1715;SDS011;855;48.824;9.220;2024-02-26T05:20:54;1.67;;;1.30;;
1715;SDS011;855;48.824;9.220;2024-02-26T05:23:21;4.67;;;1.77;;
1715;SDS011;855;48.824;9.220;2024-02-26T05:25:48;1.90;;;1.33;;
1715;SDS011;855;48.824;9.220;2024-02-26T05:28:15;4.93;;;1.67;;
1715;SDS011;855;48.824;9.220;2024-02-26T05:30:43;4.00;;;1.90;;
1715;SDS011;855;48.824;9.220;2024-02-26T05:33:10;1.97;;;1.30;;
1715;SDS011;855;48.824;9.220;2024-02-26T05:35:37;3.03;;;1.90;;
1715;SDS011;855;48.824;9.220;2024-02-26T05:38:05;2.40;;;1.80;;
1715;SDS011;855;48.824;9.220;2024-02-26T05:40:32;2.20;;;1.63;;
1715;SDS011;855;48.824;9.220;2024-02-26T05:42:59;4.80;;;1.80;;
1715;SDS011;855;48.824;9.220;2024-02-26T05:45:26;4.03;;;1.80;;
1715;SDS011;855;48.824;9.220;2024-02-26T05:47:54;2.20;;;1.33;;
1715;SDS011;855;48.824;9.220;2024-02-26T05:50:21;1.77;;;1.43;;
1715;SDS011;855;48.824;9.220;2024-02-26T05:52:48;7.33;;;2.13;;
1715;SDS011;855;48.824;9.220;2024-02-26T05:55:14;4.00;;;1.63;;
1715;SDS011;855;48.824;9.220;2024-02-26T05:57:41;4.10;;;2.23;;
1715;SDS011;855;48.824;9.220;2024-02-26T06:00:08;3.73;;;1.57;;
1715;SDS011;855;48.824;9.220;2024-02-26T06:02:38;3.80;;;1.70;;
1715;SDS011;855;48.824;9.220;2024-02-26T06:05:06;2.73;;;1.60;;
1715;SDS011;855;48.824;9.220;2024-02-26T06:07:33;7.40;;;2.27;;
1715;SDS011;855;48.824;9.220;2024-02-26T06:10:00;4.10;;;1.97;;
1715;SDS011;855;48.824;9.220;2024-02-26T06:12:29;3.67;;;2.30;;
1715;SDS011;855;48.824;9.220;2024-02-26T06:14:57;1.77;;;1.67;;
1715;SDS011;855;48.824;9.220;2024-02-26T06:17:26;3.20;;;1.90;;
1715;SDS011;855;48.824;9.220;2024-02-26T06:19:53;2.80;;;2.00;;
1715;SDS011;855;48.824;9.220;2024-02-26T06:22:21;4.07;;;2.00;;
1715;SDS011;855;48.824;9.220;2024-02-26T06:24:47;9.70;;;3.50;;
1715;SDS011;855;48.824;9.220;2024-02-26T06:27:14;4.17;;;2.27;;
1715;SDS011;855;48.824;9.220;2024-02-26T06:29:41;3.57;;;1.67;;
1715;SDS011;855;48.824;9.220;2024-02-26T06:32:08;4.50;;;1.87;;
1715;SDS011;855;48.824;9.220;2024-02-26T06:34:35;4.57;;;1.70;;
1715;SDS011;855;48.824;9.220;2024-02-26T06:37:03;8.47;;;2.43;;
1715;SDS011;855;48.824;9.220;2024-02-26T06:39:31;1.83;;;1.70;;
1715;SDS011;855;48.824;9.220;2024-02-26T06:41:58;2.70;;;2.00;;
1715;SDS011;855;48.824;9.220;2024-02-26T06:44:26;5.17;;;2.00;;
1715;SDS011;855;48.824;9.220;2024-02-26T06:46:56;2.20;;;2.00;;
1715;SDS011;855;48.824;9.220;2024-02-26T06:49:24;6.27;;;2.80;;
1715;SDS011;855;48.824;9.220;2024-02-26T06:51:50;3.20;;;2.10;;
1715;SDS011;855;48.824;9.220;2024-02-26T06:54:17;3.87;;;2.50;;
1715;SDS011;855;48.824;9.220;2024-02-26T06:56:45;3.90;;;1.63;;
1715;SDS011;855;48.824;9.220;2024-02-26T06:59:12;3.53;;;2.17;;
1715;SDS011;855;48.824;9.220;2024-02-26T07:01:39;2.77;;;1.90;;
1715;SDS011;855;48.824;9.220;2024-02-26T07:04:07;8.13;;;2.60;;
1715;SDS011;855;48.824;9.220;2024-02-26T07:06:35;4.20;;;2.57;;
1715;SDS011;855;48.824;9.220;2024-02-26T07:09:02;7.60;;;2.43;;
1715;SDS011;855;48.824;9.220;2024-02-26T07:11:29;3.10;;;2.30;;
1715;SDS011;855;48.824;9.220;2024-02-26T07:13:57;10.07;;;2.30;;
1715;SDS011;855;48.824;9.220;2024-02-26T07:16:25;5.60;;;2.50;;
1715;SDS011;855;48.824;9.220;2024-02-26T07:18:52;6.33;;;2.50;;
1715;SDS011;855;48.824;9.220;2024-02-26T07:21:19;4.13;;;2.90;;
1715;SDS011;855;48.824;9.220;2024-02-26T07:23:46;4.73;;;2.03;;
1715;SDS011;855;48.824;9.220;2024-02-26T07:26:13;5.20;;;2.50;;
1715;SDS011;855;48.824;9.220;2024-02-26T07:28:40;6.40;;;3.43;;
1715;SDS011;855;48.824;9.220;2024-02-26T07:31:08;3.30;;;2.23;;
1715;SDS011;855;48.824;9.220;2024-02-26T07:33:34;4.00;;;2.10;;
1715;SDS011;855;48.824;9.220;2024-02-26T07:36:01;2.37;;;1.90;;
1715;SDS011;855;48.824;9.220;2024-02-26T07:38:29;6.30;;;2.70;;
1715;SDS011;855;48.824;9.220;2024-02-26T07:40:55;7.43;;;3.30;;
1715;SDS011;855;48.824;9.220;2024-02-26T07:43:23;8.67;;;2.80;;
1715;SDS011;855;48.824;9.220;2024-02-26T07:45:49;5.53;;;3.03;;
1715;SDS011;855;48.824;9.220;2024-02-26T07:48:17;5.10;;;3.17;;
1715;SDS011;855;48.824;9.220;2024-02-26T07:50:44;6.00;;;3.07;;
1715;SDS011;855;48.824;9.220;2024-02-26T07:53:11;6.13;;;3.60;;
1715;SDS011;855;48.824;9.220;2024-02-26T07:55:38;6.60;;;3.60;;
1715;SDS011;855;48.824;9.220;2024-02-26T07:58:05;4.67;;;2.80;;
1715;SDS011;855;48.824;9.220;2024-02-26T08:00:32;5.83;;;3.13;;
1715;SDS011;855;48.824;9.220;2024-02-26T08:02:58;5.90;;;2.40;;
1715;SDS011;855;48.824;9.220;2024-02-26T08:05:27;6.07;;;3.43;;
1715;SDS011;855;48.824;9.220;2024-02-26T08:07:53;4.93;;;2.80;;
1715;SDS011;855;48.824;9.220;2024-02-26T08:10:21;5.27;;;3.23;;
1715;SDS011;855;48.824;9.220;2024-02-26T08:12:48;4.50;;;3.00;;
1715;SDS011;855;48.824;9.220;2024-02-26T08:15:14;4.80;;;3.00;;
1715;SDS011;855;48.824;9.220;2024-02-26T08:17:41;9.23;;;3.20;;
1715;SDS011;855;48.824;9.220;2024-02-26T08:20:08;4.50;;;2.60;;
1715;SDS011;855;48.824;9.220;2024-02-26T08:22:39;3.57;;;2.60;;
1715;SDS011;855;48.824;9.220;2024-02-26T08:25:06;9.73;;;3.50;;
1715;SDS011;855;48.824;9.220;2024-02-26T08:27:34;7.97;;;3.03;;
1715;SDS011;855;48.824;9.220;2024-02-26T08:30:03;4.70;;;4.20;;
1715;SDS011;855;48.824;9.220;2024-02-26T08:32:31;3.33;;;1.80;;
1715;SDS011;855;48.824;9.220;2024-02-26T08:34:58;2.40;;;2.20;;
1715;SDS011;855;48.824;9.220;2024-02-26T08:37:25;6.70;;;2.67;;
1715;SDS011;855;48.824;9.220;2024-02-26T08:39:53;5.63;;;2.60;;
1715;SDS011;855;48.824;9.220;2024-02-26T08:42:19;3.60;;;1.87;;
1715;SDS011;855;48.824;9.220;2024-02-26T08:44:49;1.90;;;1.80;;
1715;SDS011;855;48.824;9.220;2024-02-26T08:47:19;6.40;;;2.17;;
1715;SDS011;855;48.824;9.220;2024-02-26T08:49:46;3.80;;;2.37;;
1715;SDS011;855;48.824;9.220;2024-02-26T08:52:13;5.63;;;2.20;;
1715;SDS011;855;48.824;9.220;2024-02-26T08:54:42;6.80;;;2.77;;
1715;SDS011;855;48.824;9.220;2024-02-26T08:57:10;2.73;;;1.87;;
1715;SDS011;855;48.824;9.220;2024-02-26T08:59:37;4.20;;;2.00;;
1715;SDS011;855;48.824;9.220;2024-02-26T09:02:04;8.73;;;2.57;;
1715;SDS011;855;48.824;9.220;2024-02-26T09:04:30;3.80;;;2.60;;
1715;SDS011;855;48.824;9.220;2024-02-26T09:06:57;4.30;;;2.30;;
1715;SDS011;855;48.824;9.220;2024-02-26T09:09:24;4.97;;;2.38;;
1715;SDS011;855;48.824;9.220;2024-02-26T09:11:51;2.03;;;1.60;;
1715;SDS011;855;48.824;9.220;2024-02-26T09:14:21;2.83;;;1.90;;
1715;SDS011;855;48.824;9.220;2024-02-26T09:16:48;3.47;;;1.93;;
1715;SDS011;855;48.824;9.220;2024-02-26T09:19:15;5.40;;;2.30;;
1715;SDS011;855;48.824;9.220;2024-02-26T09:21:42;3.63;;;1.90;;
1715;SDS011;855;48.824;9.220;2024-02-26T09:24:09;2.50;;;1.93;;
1715;SDS011;855;48.824;9.220;2024-02-26T09:26:36;3.70;;;1.90;;
1715;SDS011;855;48.824;9.220;2024-02-26T09:29:03;4.47;;;1.97;;
1715;SDS011;855;48.824;9.220;2024-02-26T09:31:32;4.47;;;1.90;;
1715;SDS011;855;48.824;9.220;2024-02-26T09:34:00;4.10;;;1.83;;
1715;SDS011;855;48.824;9.220;2024-02-26T09:36:27;4.57;;;1.97;;
1715;SDS011;855;48.824;9.220;2024-02-26T09:38:53;5.90;;;2.90;;
1715;SDS011;855;48.824;9.220;2024-02-26T09:41:20;2.63;;;2.40;;
1715;SDS011;855;48.824;9.220;2024-02-26T09:43:47;2.70;;;1.87;;
1715;SDS011;855;48.824;9.220;2024-02-26T09:46:17;7.17;;;2.43;;
1715;SDS011;855;48.824;9.220;2024-02-26T09:48:46;3.00;;;2.10;;
1715;SDS011;855;48.824;9.220;2024-02-26T09:51:14;4.60;;;1.90;;
1715;SDS011;855;48.824;9.220;2024-02-26T09:53:42;3.60;;;2.33;;
1715;SDS011;855;48.824;9.220;2024-02-26T09:56:11;6.10;;;2.13;;
1715;SDS011;855;48.824;9.220;2024-02-26T09:58:39;2.43;;;1.97;;
1715;SDS011;855;48.824;9.220;2024-02-26T10:01:11;10.10;;;2.20;;
1715;SDS011;855;48.824;9.220;2024-02-26T10:03:42;3.60;;;2.30;;
1715;SDS011;855;48.824;9.220;2024-02-26T10:06:11;3.13;;;2.30;;
1715;SDS011;855;48.824;9.220;2024-02-26T10:08:38;1.83;;;1.73;;
1715;SDS011;855;48.824;9.220;2024-02-26T10:11:06;2.57;;;1.77;;
1715;SDS011;855;48.824;9.220;2024-02-26T10:13:34;2.70;;;1.27;;
1715;SDS011;855;48.824;9.220;2024-02-26T10:16:01;5.63;;;2.37;;
1715;SDS011;855;48.824;9.220;2024-02-26T10:21:16;2.30;;;2.00;;
1715;SDS011;855;48.824;9.220;2024-02-26T10:23:44;2.87;;;1.67;;
1715;SDS011;855;48.824;9.220;2024-02-26T10:26:12;2.47;;;1.77;;
1715;SDS011;855;48.824;9.220;2024-02-26T10:28:41;2.87;;;1.57;;
1715;SDS011;855;48.824;9.220;2024-02-26T10:31:09;1.90;;;1.43;;
1715;SDS011;855;48.824;9.220;2024-02-26T10:33:37;3.20;;;1.90;;
1715;SDS011;855;48.824;9.220;2024-02-26T10:36:04;1.83;;;1.50;;
1715;SDS011;855;48.824;9.220;2024-02-26T10:38:34;1.93;;;1.80;;
1715;SDS011;855;48.824;9.220;2024-02-26T10:41:01;4.00;;;1.87;;
1715;SDS011;855;48.824;9.220;2024-02-26T10:43:28;2.97;;;1.70;;
1715;SDS011;855;48.824;9.220;2024-02-26T10:45:55;4.73;;;1.50;;
1715;SDS011;855;48.824;9.220;2024-02-26T10:48:22;1.80;;;1.43;;
1715;SDS011;855;48.824;9.220;2024-02-26T10:50:49;4.30;;;2.17;;
1715;SDS011;855;48.824;9.220;2024-02-26T10:53:19;6.50;;;1.83;;
1715;SDS011;855;48.824;9.220;2024-02-26T10:55:51;1.27;;;1.27;;
1715;SDS011;855;48.824;9.220;2024-02-26T10:58:20;3.60;;;1.70;;
1715;SDS011;855;48.824;9.220;2024-02-26T11:00:50;3.70;;;1.67;;
1715;SDS011;855;48.824;9.220;2024-02-26T11:03:17;1.63;;;1.20;;
1715;SDS011;855;48.824;9.220;2024-02-26T11:05:46;3.00;;;2.00;;
1715;SDS011;855;48.824;9.220;2024-02-26T11:08:14;1.67;;;1.50;;
1715;SDS011;855;48.824;9.220;2024-02-26T11:10:41;2.30;;;1.20;;
1715;SDS011;855;48.824;9.220;2024-02-26T11:13:10;4.23;;;1.70;;
1715;SDS011;855;48.824;9.220;2024-02-26T11:15:40;2.27;;;1.40;;
1715;SDS011;855;48.824;9.220;2024-02-26T11:18:07;13.00;;;1.70;;
1715;SDS011;855;48.824;9.220;2024-02-26T11:20:35;2.40;;;1.60;;
1715;SDS011;855;48.824;9.220;2024-02-26T11:23:06;1.33;;;0.97;;
1715;SDS011;855;48.824;9.220;2024-02-26T11:25:34;3.77;;;1.43;;
1715;SDS011;855;48.824;9.220;2024-02-26T11:28:02;1.20;;;0.97;;
1715;SDS011;855;48.824;9.220;2024-02-26T11:30:35;1.10;;;0.90;;
1715;SDS011;855;48.824;9.220;2024-02-26T11:33:06;1.00;;;0.90;;
1715;SDS011;855;48.824;9.220;2024-02-26T11:35:34;7.77;;;1.03;;
1715;SDS011;855;48.824;9.220;2024-02-26T11:38:02;2.10;;;0.97;;
1715;SDS011;855;48.824;9.220;2024-02-26T11:40:30;2.17;;;1.23;;
1715;SDS011;855;48.824;9.220;2024-02-26T11:42:58;1.67;;;0.90;;
1715;SDS011;855;48.824;9.220;2024-02-26T11:48:21;3.30;;;1.67;;
1715;SDS011;855;48.824;9.220;2024-02-26T11:50:49;1.03;;;1.00;;
1715;SDS011;855;48.824;9.220;2024-02-26T11:53:21;1.20;;;1.10;;
1715;SDS011;855;48.824;9.220;2024-02-26T11:58:46;2.90;;;1.20;;
1715;SDS011;855;48.824;9.220;2024-02-26T12:04:11;2.93;;;1.43;;
1715;SDS011;855;48.824;9.220;2024-02-26T12:06:47;4.33;;;0.90;;
1715;SDS011;855;48.824;9.220;2024-02-26T12:09:33;1.70;;;0.93;;
1715;SDS011;855;48.824;9.220;2024-02-26T12:12:01;0.80;;;0.70;;
1715;SDS011;855;48.824;9.220;2024-02-26T12:14:29;2.40;;;1.03;;
1715;SDS011;855;48.824;9.220;2024-02-26T12:17:00;0.77;;;0.73;;
1715;SDS011;855;48.824;9.220;2024-02-26T12:19:27;4.57;;;0.97;;
1715;SDS011;855;48.824;9.220;2024-02-26T12:21:54;1.23;;;0.90;;
1715;SDS011;855;48.824;9.220;2024-02-26T12:24:21;1.87;;;1.20;;
1715;SDS011;855;48.824;9.220;2024-02-26T12:26:48;2.10;;;1.03;;
1715;SDS011;855;48.824;9.220;2024-02-26T12:29:15;1.40;;;1.00;;
1715;SDS011;855;48.824;9.220;2024-02-26T12:31:42;1.30;;;1.20;;
1715;SDS011;855;48.824;9.220;2024-02-26T12:34:10;1.33;;;0.93;;
1715;SDS011;855;48.824;9.220;2024-02-26T12:36:37;2.40;;;1.20;;
1715;SDS011;855;48.824;9.220;2024-02-26T12:39:05;2.03;;;1.00;;
1715;SDS011;855;48.824;9.220;2024-02-26T12:41:32;3.97;;;1.17;;
1715;SDS011;855;48.824;9.220;2024-02-26T12:44:00;3.40;;;1.30;;
1715;SDS011;855;48.824;9.220;2024-02-26T12:46:27;1.30;;;1.10;;
1715;SDS011;855;48.824;9.220;2024-02-26T12:48:55;1.83;;;1.40;;
1715;SDS011;855;48.824;9.220;2024-02-26T12:51:25;1.10;;;0.90;;
1715;SDS011;855;48.824;9.220;2024-02-26T12:53:53;4.93;;;1.17;;
1715;SDS011;855;48.824;9.220;2024-02-26T12:56:22;2.43;;;1.27;;
1715;SDS011;855;48.824;9.220;2024-02-26T12:58:49;4.07;;;1.50;;
1715;SDS011;855;48.824;9.220;2024-02-26T13:01:18;2.70;;;1.47;;
1715;SDS011;855;48.824;9.220;2024-02-26T13:03:48;3.77;;;1.83;;
1715;SDS011;855;48.824;9.220;2024-02-26T13:06:15;4.03;;;1.23;;
1715;SDS011;855;48.824;9.220;2024-02-26T13:08:44;2.37;;;1.03;;
1715;SDS011;855;48.824;9.220;2024-02-26T13:11:11;3.90;;;1.17;;
1715;SDS011;855;48.824;9.220;2024-02-26T13:13:38;2.60;;;1.70;;
1715;SDS011;855;48.824;9.220;2024-02-26T13:16:09;1.83;;;1.23;;
1715;SDS011;855;48.824;9.220;2024-02-26T13:18:40;1.70;;;1.00;;
1715;SDS011;855;48.824;9.220;2024-02-26T13:21:08;2.03;;;1.30;;
1715;SDS011;855;48.824;9.220;2024-02-26T13:23:39;1.57;;;1.40;;
1715;SDS011;855;48.824;9.220;2024-02-26T13:26:08;1.23;;;1.00;;
1715;SDS011;855;48.824;9.220;2024-02-26T13:28:37;2.20;;;1.20;;
1715;SDS011;855;48.824;9.220;2024-02-26T13:31:04;3.73;;;1.70;;
1715;SDS011;855;48.824;9.220;2024-02-26T13:33:32;1.37;;;1.10;;
1715;SDS011;855;48.824;9.220;2024-02-26T13:36:02;2.00;;;1.03;;
1715;SDS011;855;48.824;9.220;2024-02-26T13:38:30;1.50;;;1.03;;
1715;SDS011;855;48.824;9.220;2024-02-26T13:40:56;1.60;;;0.83;;
1715;SDS011;855;48.824;9.220;2024-02-26T13:43:25;1.80;;;0.93;;
1715;SDS011;855;48.824;9.220;2024-02-26T13:45:51;2.80;;;1.30;;
1715;SDS011;855;48.824;9.220;2024-02-26T13:48:18;1.37;;;1.20;;
1715;SDS011;855;48.824;9.220;2024-02-26T13:50:45;3.90;;;1.67;;
1715;SDS011;855;48.824;9.220;2024-02-26T13:53:12;2.90;;;1.40;;
1715;SDS011;855;48.824;9.220;2024-02-26T13:55:39;3.53;;;2.03;;
1715;SDS011;855;48.824;9.220;2024-02-26T13:58:08;1.13;;;1.00;;
1715;SDS011;855;48.824;9.220;2024-02-26T14:00:38;1.30;;;0.97;;
1715;SDS011;855;48.824;9.220;2024-02-26T14:03:06;1.00;;;0.97;;
1715;SDS011;855;48.824;9.220;2024-02-26T14:05:33;1.53;;;1.17;;
1715;SDS011;855;48.824;9.220;2024-02-26T14:08:00;3.03;;;1.20;;
1715;SDS011;855;48.824;9.220;2024-02-26T14:10:27;2.00;;;0.93;;
1715;SDS011;855;48.824;9.220;2024-02-26T14:12:55;14.13;;;1.00;;
1715;SDS011;855;48.824;9.220;2024-02-26T14:15:22;1.80;;;1.23;;
1715;SDS011;855;48.824;9.220;2024-02-26T14:17:51;1.00;;;0.67;;
1715;SDS011;855;48.824;9.220;2024-02-26T14:20:21;4.33;;;0.90;;
1715;SDS011;855;48.824;9.220;2024-02-26T14:22:48;0.80;;;0.70;;
1715;SDS011;855;48.824;9.220;2024-02-26T14:25:16;3.03;;;1.63;;
1715;SDS011;855;48.824;9.220;2024-02-26T14:27:43;0.50;;;0.50;;
1715;SDS011;855;48.824;9.220;2024-02-26T14:30:10;0.70;;;0.60;;
1715;SDS011;855;48.824;9.220;2024-02-26T14:32:37;1.10;;;0.57;;
1715;SDS011;855;48.824;9.220;2024-02-26T14:35:07;4.03;;;1.17;;
1715;SDS011;855;48.824;9.220;2024-02-26T14:37:35;2.10;;;0.77;;
1715;SDS011;855;48.824;9.220;2024-02-26T14:40:02;3.87;;;2.90;;
1715;SDS011;855;48.824;9.220;2024-02-26T14:42:29;2.87;;;2.43;;
1715;SDS011;855;48.824;9.220;2024-02-26T14:44:56;3.07;;;0.87;;
1715;SDS011;855;48.824;9.220;2024-02-26T14:47:23;0.40;;;0.40;;
1715;SDS011;855;48.824;9.220;2024-02-26T14:49:50;2.93;;;1.30;;
1715;SDS011;855;48.824;9.220;2024-02-26T14:52:18;3.87;;;1.90;;
1715;SDS011;855;48.824;9.220;2024-02-26T14:54:45;2.83;;;1.07;;
1715;SDS011;855;48.824;9.220;2024-02-26T14:57:12;3.13;;;0.70;;
1715;SDS011;855;48.824;9.220;2024-02-26T14:59:38;0.67;;;0.60;;
1715;SDS011;855;48.824;9.220;2024-02-26T15:02:05;1.83;;;0.83;;
1715;SDS011;855;48.824;9.220;2024-02-26T15:04:34;1.73;;;1.23;;
1715;SDS011;855;48.824;9.220;2024-02-26T15:07:01;0.80;;;0.70;;
1715;SDS011;855;48.824;9.220;2024-02-26T15:09:29;2.07;;;1.00;;
1715;SDS011;855;48.824;9.220;2024-02-26T15:11:56;3.87;;;1.60;;
1715;SDS011;855;48.824;9.220;2024-02-26T15:14:23;3.97;;;1.30;;
1715;SDS011;855;48.824;9.220;2024-02-26T15:16:50;4.20;;;2.47;;
1715;SDS011;855;48.824;9.220;2024-02-26T15:19:18;3.70;;;1.23;;
1715;SDS011;855;48.824;9.220;2024-02-26T15:21:45;1.70;;;1.37;;
1715;SDS011;855;48.824;9.220;2024-02-26T15:24:12;1.60;;;1.10;;
1715;SDS011;855;48.824;9.220;2024-02-26T15:26:42;1.17;;;0.70;;
1715;SDS011;855;48.824;9.220;2024-02-26T15:29:09;1.83;;;1.10;;
1715;SDS011;855;48.824;9.220;2024-02-26T15:31:36;2.20;;;0.80;;
1715;SDS011;855;48.824;9.220;2024-02-26T15:34:03;2.03;;;1.03;;
1715;SDS011;855;48.824;9.220;2024-02-26T15:36:30;2.53;;;1.03;;
1715;SDS011;855;48.824;9.220;2024-02-26T15:38:57;1.00;;;0.80;;
1715;SDS011;855;48.824;9.220;2024-02-26T15:41:24;0.97;;;0.80;;
1715;SDS011;855;48.824;9.220;2024-02-26T15:43:52;1.00;;;0.90;;